sensor_id;sensor_type;location;lat;lon;timestamp;temperature;humidity
74416;SHT31;62850;42.428;25.618;2023-07-24T00:01:02;24.10;74.71
74416;SHT31;62850;42.428;25.618;2023-07-24T00:03:27;24.18;74.67
74416;SHT31;62850;42.428;25.618;2023-07-24T00:05:53;24.18;74.51
74416;SHT31;62850;42.428;25.618;2023-07-24T00:08:18;24.15;74.50
74416;SHT31;62850;42.428;25.618;2023-07-24T00:10:44;24.15;74.41
74416;SHT31;62850;42.428;25.618;2023-07-24T00:13:09;24.11;74.42
74416;SHT31;62850;42.428;25.618;2023-07-24T00:15:35;24.14;74.42
74416;SHT31;62850;42.428;25.618;2023-07-24T00:18:00;24.10;74.53
74416;SHT31;62850;42.428;25.618;2023-07-24T00:20:26;23.93;74.88
74416;SHT31;62850;42.428;25.618;2023-07-24T00:22:52;23.90;74.94
74416;SHT31;62850;42.428;25.618;2023-07-24T00:25:18;23.90;75.00
74416;SHT31;62850;42.428;25.618;2023-07-24T00:27:43;23.90;74.82
74416;SHT31;62850;42.428;25.618;2023-07-24T00:30:09;23.83;75.03
74416;SHT31;62850;42.428;25.618;2023-07-24T00:32:34;23.81;75.24
74416;SHT31;62850;42.428;25.618;2023-07-24T00:35:00;23.74;75.10
74416;SHT31;62850;42.428;25.618;2023-07-24T00:37:25;23.62;75.63
74416;SHT31;62850;42.428;25.618;2023-07-24T00:39:51;23.60;75.64
74416;SHT31;62850;42.428;25.618;2023-07-24T00:42:16;23.46;76.09
74416;SHT31;62850;42.428;25.618;2023-07-24T00:44:42;23.55;75.75
74416;SHT31;62850;42.428;25.618;2023-07-24T00:47:08;23.47;75.95
74416;SHT31;62850;42.428;25.618;2023-07-24T00:49:34;23.50;75.90
74416;SHT31;62850;42.428;25.618;2023-07-24T00:51:59;23.55;75.74
74416;SHT31;62850;42.428;25.618;2023-07-24T00:54:27;23.55;75.84
74416;SHT31;62850;42.428;25.618;2023-07-24T00:56:55;23.52;75.79
74416;SHT31;62850;42.428;25.618;2023-07-24T00:59:21;23.42;76.04
74416;SHT31;62850;42.428;25.618;2023-07-24T01:01:47;23.33;76.16
74416;SHT31;62850;42.428;25.618;2023-07-24T01:04:13;23.28;76.41
74416;SHT31;62850;42.428;25.618;2023-07-24T01:06:40;23.29;76.57
74416;SHT31;62850;42.428;25.618;2023-07-24T01:09:05;23.20;76.77
74416;SHT31;62850;42.428;25.618;2023-07-24T01:11:38;23.22;76.67
74416;SHT31;62850;42.428;25.618;2023-07-24T01:14:23;23.22;76.71
74416;SHT31;62850;42.428;25.618;2023-07-24T01:16:50;23.20;76.63
74416;SHT31;62850;42.428;25.618;2023-07-24T01:27:44;22.94;77.37
74416;SHT31;62850;42.428;25.618;2023-07-24T01:30:10;22.94;77.28
74416;SHT31;62850;42.428;25.618;2023-07-24T01:32:36;23.01;77.12
74416;SHT31;62850;42.428;25.618;2023-07-24T01:35:02;23.04;76.95
74416;SHT31;62850;42.428;25.618;2023-07-24T01:37:28;23.02;76.73
74416;SHT31;62850;42.428;25.618;2023-07-24T01:39:55;22.97;76.66
74416;SHT31;62850;42.428;25.618;2023-07-24T01:42:22;22.91;76.47
74416;SHT31;62850;42.428;25.618;2023-07-24T01:44:52;22.88;76.24
74416;SHT31;62850;42.428;25.618;2023-07-24T01:47:17;22.77;76.20
74416;SHT31;62850;42.428;25.618;2023-07-24T01:49:43;22.68;76.52
74416;SHT31;62850;42.428;25.618;2023-07-24T01:52:08;22.68;76.39
74416;SHT31;62850;42.428;25.618;2023-07-24T01:54:34;22.61;76.55
74416;SHT31;62850;42.428;25.618;2023-07-24T01:56:59;22.65;76.48
74416;SHT31;62850;42.428;25.618;2023-07-24T01:59:25;22.64;76.45
74416;SHT31;62850;42.428;25.618;2023-07-24T02:01:50;22.72;76.25
74416;SHT31;62850;42.428;25.618;2023-07-24T02:04:16;22.75;76.03
74416;SHT31;62850;42.428;25.618;2023-07-24T02:06:41;22.74;76.20
74416;SHT31;62850;42.428;25.618;2023-07-24T02:09:07;22.67;76.28
74416;SHT31;62850;42.428;25.618;2023-07-24T02:11:32;22.71;76.30
74416;SHT31;62850;42.428;25.618;2023-07-24T02:13:58;22.64;76.46
74416;SHT31;62850;42.428;25.618;2023-07-24T02:16:24;22.61;76.66
74416;SHT31;62850;42.428;25.618;2023-07-24T02:18:50;22.60;76.54
74416;SHT31;62850;42.428;25.618;2023-07-24T02:21:15;22.65;76.73
74416;SHT31;62850;42.428;25.618;2023-07-24T02:23:40;22.68;76.22
74416;SHT31;62850;42.428;25.618;2023-07-24T02:26:06;22.65;76.35
74416;SHT31;62850;42.428;25.618;2023-07-24T02:28:31;22.64;76.43
74416;SHT31;62850;42.428;25.618;2023-07-24T02:30:57;22.70;76.46
74416;SHT31;62850;42.428;25.618;2023-07-24T02:33:22;22.77;76.22
74416;SHT31;62850;42.428;25.618;2023-07-24T02:35:51;22.72;75.77
74416;SHT31;62850;42.428;25.618;2023-07-24T02:38:17;22.74;75.83
74416;SHT31;62850;42.428;25.618;2023-07-24T02:40:43;22.72;75.42
74416;SHT31;62850;42.428;25.618;2023-07-24T02:43:09;22.63;75.24
74416;SHT31;62850;42.428;25.618;2023-07-24T02:45:35;22.61;75.64
74416;SHT31;62850;42.428;25.618;2023-07-24T02:48:01;22.56;75.81
74416;SHT31;62850;42.428;25.618;2023-07-24T02:50:28;22.54;75.88
74416;SHT31;62850;42.428;25.618;2023-07-24T02:52:53;22.44;75.94
74416;SHT31;62850;42.428;25.618;2023-07-24T02:55:18;22.41;76.14
74416;SHT31;62850;42.428;25.618;2023-07-24T02:57:44;22.39;76.27
74416;SHT31;62850;42.428;25.618;2023-07-24T03:00:10;22.35;76.20
74416;SHT31;62850;42.428;25.618;2023-07-24T03:02:36;22.39;76.07
74416;SHT31;62850;42.428;25.618;2023-07-24T03:05:02;22.37;76.03
74416;SHT31;62850;42.428;25.618;2023-07-24T03:07:28;22.41;76.31
74416;SHT31;62850;42.428;25.618;2023-07-24T03:09:53;22.33;76.36
74416;SHT31;62850;42.428;25.618;2023-07-24T03:12:18;22.29;76.55
74416;SHT31;62850;42.428;25.618;2023-07-24T03:14:44;22.29;76.60
74416;SHT31;62850;42.428;25.618;2023-07-24T03:17:09;22.35;76.57
74416;SHT31;62850;42.428;25.618;2023-07-24T03:19:35;22.35;76.57
74416;SHT31;62850;42.428;25.618;2023-07-24T03:22:00;22.40;76.43
74416;SHT31;62850;42.428;25.618;2023-07-24T03:24:26;22.37;76.37
74416;SHT31;62850;42.428;25.618;2023-07-24T03:26:52;22.35;76.36
74416;SHT31;62850;42.428;25.618;2023-07-24T03:29:18;22.24;76.39
74416;SHT31;62850;42.428;25.618;2023-07-24T03:31:43;22.32;76.37
74416;SHT31;62850;42.428;25.618;2023-07-24T03:34:09;22.33;76.44
74416;SHT31;62850;42.428;25.618;2023-07-24T03:36:34;22.40;76.42
74416;SHT31;62850;42.428;25.618;2023-07-24T03:39:01;22.39;76.11
74416;SHT31;62850;42.428;25.618;2023-07-24T03:41:26;22.44;75.98
74416;SHT31;62850;42.428;25.618;2023-07-24T03:43:52;22.43;76.22
74416;SHT31;62850;42.428;25.618;2023-07-24T03:46:17;22.54;75.78
74416;SHT31;62850;42.428;25.618;2023-07-24T03:48:43;22.44;75.96
74416;SHT31;62850;42.428;25.618;2023-07-24T03:51:08;22.41;76.07
74416;SHT31;62850;42.428;25.618;2023-07-24T03:53:34;22.43;76.21
74416;SHT31;62850;42.428;25.618;2023-07-24T03:55:59;22.51;76.07
74416;SHT31;62850;42.428;25.618;2023-07-24T03:58:25;22.58;76.01
74416;SHT31;62850;42.428;25.618;2023-07-24T04:00:50;22.61;75.83
74416;SHT31;62850;42.428;25.618;2023-07-24T04:03:16;22.65;75.70
74416;SHT31;62850;42.428;25.618;2023-07-24T04:05:41;22.74;75.48
74416;SHT31;62850;42.428;25.618;2023-07-24T04:08:07;22.74;75.36
74416;SHT31;62850;42.428;25.618;2023-07-24T04:10:32;22.79;75.41
74416;SHT31;62850;42.428;25.618;2023-07-24T04:12:58;22.83;75.28
74416;SHT31;62850;42.428;25.618;2023-07-24T04:15:23;22.86;75.46
74416;SHT31;62850;42.428;25.618;2023-07-24T04:17:49;22.95;75.15
74416;SHT31;62850;42.428;25.618;2023-07-24T04:20:14;23.01;75.05
74416;SHT31;62850;42.428;25.618;2023-07-24T04:22:40;23.07;74.97
74416;SHT31;62850;42.428;25.618;2023-07-24T04:25:05;23.18;74.72
74416;SHT31;62850;42.428;25.618;2023-07-24T04:27:31;23.25;74.53
74416;SHT31;62850;42.428;25.618;2023-07-24T04:29:57;23.36;74.36
74416;SHT31;62850;42.428;25.618;2023-07-24T04:32:22;23.45;74.23
74416;SHT31;62850;42.428;25.618;2023-07-24T04:34:47;23.47;73.91
74416;SHT31;62850;42.428;25.618;2023-07-24T04:37:13;23.49;73.89
74416;SHT31;62850;42.428;25.618;2023-07-24T04:39:39;23.47;73.89
74416;SHT31;62850;42.428;25.618;2023-07-24T04:42:04;23.52;74.01
74416;SHT31;62850;42.428;25.618;2023-07-24T04:44:30;23.52;73.85
74416;SHT31;62850;42.428;25.618;2023-07-24T04:46:57;23.62;73.56
74416;SHT31;62850;42.428;25.618;2023-07-24T04:49:23;23.67;73.32
74416;SHT31;62850;42.428;25.618;2023-07-24T04:51:50;23.76;73.30
74416;SHT31;62850;42.428;25.618;2023-07-24T04:54:15;23.87;73.17
74416;SHT31;62850;42.428;25.618;2023-07-24T04:56:41;23.96;72.87
74416;SHT31;62850;42.428;25.618;2023-07-24T04:59:06;24.03;72.52
74416;SHT31;62850;42.428;25.618;2023-07-24T05:01:32;24.11;72.32
74416;SHT31;62850;42.428;25.618;2023-07-24T05:03:57;24.15;72.20
74416;SHT31;62850;42.428;25.618;2023-07-24T05:06:23;24.22;72.25
74416;SHT31;62850;42.428;25.618;2023-07-24T05:08:48;24.25;72.16
74416;SHT31;62850;42.428;25.618;2023-07-24T05:11:14;24.32;72.14
74416;SHT31;62850;42.428;25.618;2023-07-24T05:13:39;24.35;71.90
74416;SHT31;62850;42.428;25.618;2023-07-24T05:16:05;24.45;71.56
74416;SHT31;62850;42.428;25.618;2023-07-24T05:18:30;24.47;71.42
74416;SHT31;62850;42.428;25.618;2023-07-24T05:20:56;24.47;71.42
74416;SHT31;62850;42.428;25.618;2023-07-24T05:23:22;24.47;71.10
74416;SHT31;62850;42.428;25.618;2023-07-24T05:25:56;24.41;70.77
74416;SHT31;62850;42.428;25.618;2023-07-24T05:28:22;24.45;70.82
74416;SHT31;62850;42.428;25.618;2023-07-24T05:30:48;24.56;70.74
74416;SHT31;62850;42.428;25.618;2023-07-24T05:33:13;24.71;70.57
74416;SHT31;62850;42.428;25.618;2023-07-24T05:35:39;24.75;70.68
74416;SHT31;62850;42.428;25.618;2023-07-24T05:38:04;24.77;70.46
74416;SHT31;62850;42.428;25.618;2023-07-24T05:40:30;24.79;70.33
74416;SHT31;62850;42.428;25.618;2023-07-24T05:42:55;24.85;70.01
74416;SHT31;62850;42.428;25.618;2023-07-24T05:45:21;24.86;70.26
74416;SHT31;62850;42.428;25.618;2023-07-24T05:47:46;24.89;69.69
74416;SHT31;62850;42.428;25.618;2023-07-24T05:50:12;24.96;69.38
74416;SHT31;62850;42.428;25.618;2023-07-24T05:52:39;24.90;69.70
74416;SHT31;62850;42.428;25.618;2023-07-24T05:55:04;24.90;69.11
74416;SHT31;62850;42.428;25.618;2023-07-24T05:57:30;24.83;69.29
74416;SHT31;62850;42.428;25.618;2023-07-24T05:59:56;24.86;68.93
74416;SHT31;62850;42.428;25.618;2023-07-24T06:02:21;24.89;69.45
74416;SHT31;62850;42.428;25.618;2023-07-24T06:04:46;24.93;69.93
74416;SHT31;62850;42.428;25.618;2023-07-24T06:07:12;24.95;69.68
74416;SHT31;62850;42.428;25.618;2023-07-24T06:09:37;25.04;69.60
74416;SHT31;62850;42.428;25.618;2023-07-24T06:12:03;25.07;69.14
74416;SHT31;62850;42.428;25.618;2023-07-24T06:14:29;25.16;68.81
74416;SHT31;62850;42.428;25.618;2023-07-24T06:16:54;25.06;68.64
74416;SHT31;62850;42.428;25.618;2023-07-24T06:19:20;25.16;68.75
74416;SHT31;62850;42.428;25.618;2023-07-24T06:21:46;25.24;68.51
74416;SHT31;62850;42.428;25.618;2023-07-24T06:24:12;25.38;68.07
74416;SHT31;62850;42.428;25.618;2023-07-24T06:26:38;25.43;68.13
74416;SHT31;62850;42.428;25.618;2023-07-24T06:29:04;25.33;68.10
74416;SHT31;62850;42.428;25.618;2023-07-24T06:31:29;25.40;68.13
74416;SHT31;62850;42.428;25.618;2023-07-24T06:33:54;25.50;68.21
74416;SHT31;62850;42.428;25.618;2023-07-24T06:36:20;25.60;68.21
74416;SHT31;62850;42.428;25.618;2023-07-24T06:38:45;25.70;68.15
74416;SHT31;62850;42.428;25.618;2023-07-24T06:41:13;25.75;68.05
74416;SHT31;62850;42.428;25.618;2023-07-24T06:43:41;25.85;67.77
74416;SHT31;62850;42.428;25.618;2023-07-24T06:46:06;25.98;67.48
74416;SHT31;62850;42.428;25.618;2023-07-24T06:48:32;26.08;67.65
74416;SHT31;62850;42.428;25.618;2023-07-24T06:50:57;26.18;67.39
74416;SHT31;62850;42.428;25.618;2023-07-24T06:53:23;26.23;67.23
74416;SHT31;62850;42.428;25.618;2023-07-24T06:55:48;26.23;67.11
74416;SHT31;62850;42.428;25.618;2023-07-24T06:58:14;26.39;66.57
74416;SHT31;62850;42.428;25.618;2023-07-24T07:00:39;26.50;65.89
74416;SHT31;62850;42.428;25.618;2023-07-24T07:03:05;26.56;65.73
74416;SHT31;62850;42.428;25.618;2023-07-24T07:05:32;26.57;64.99
74416;SHT31;62850;42.428;25.618;2023-07-24T07:07:57;26.65;65.05
74416;SHT31;62850;42.428;25.618;2023-07-24T07:10:23;26.77;65.21
74416;SHT31;62850;42.428;25.618;2023-07-24T07:12:48;26.92;64.95
74416;SHT31;62850;42.428;25.618;2023-07-24T07:15:14;26.92;64.82
74416;SHT31;62850;42.428;25.618;2023-07-24T07:17:39;26.98;65.01
74416;SHT31;62850;42.428;25.618;2023-07-24T07:20:05;27.10;64.81
74416;SHT31;62850;42.428;25.618;2023-07-24T07:22:31;27.18;64.25
74416;SHT31;62850;42.428;25.618;2023-07-24T07:24:56;27.29;63.82
74416;SHT31;62850;42.428;25.618;2023-07-24T07:27:22;27.25;63.51
74416;SHT31;62850;42.428;25.618;2023-07-24T07:29:47;27.25;63.40
74416;SHT31;62850;42.428;25.618;2023-07-24T07:32:13;27.24;63.36
74416;SHT31;62850;42.428;25.618;2023-07-24T07:34:38;27.19;63.35
74416;SHT31;62850;42.428;25.618;2023-07-24T07:37:05;27.28;63.40
74416;SHT31;62850;42.428;25.618;2023-07-24T07:39:31;27.41;63.35
74416;SHT31;62850;42.428;25.618;2023-07-24T07:41:56;27.50;62.82
74416;SHT31;62850;42.428;25.618;2023-07-24T07:44:22;27.70;62.59
74416;SHT31;62850;42.428;25.618;2023-07-24T07:46:47;27.87;61.94
74416;SHT31;62850;42.428;25.618;2023-07-24T07:49:13;28.08;61.60
74416;SHT31;62850;42.428;25.618;2023-07-24T07:51:38;28.17;60.71
74416;SHT31;62850;42.428;25.618;2023-07-24T07:54:04;28.44;59.62
74416;SHT31;62850;42.428;25.618;2023-07-24T07:56:29;28.40;59.44
74416;SHT31;62850;42.428;25.618;2023-07-24T07:58:55;28.43;59.46
74416;SHT31;62850;42.428;25.618;2023-07-24T08:01:20;28.65;58.81
74416;SHT31;62850;42.428;25.618;2023-07-24T08:03:46;28.94;57.82
74416;SHT31;62850;42.428;25.618;2023-07-24T08:06:11;29.13;57.17
74416;SHT31;62850;42.428;25.618;2023-07-24T08:08:38;29.42;56.29
74416;SHT31;62850;42.428;25.618;2023-07-24T08:11:07;29.58;55.27
74416;SHT31;62850;42.428;25.618;2023-07-24T08:13:33;29.78;55.24
74416;SHT31;62850;42.428;25.618;2023-07-24T08:15:59;30.01;55.04
74416;SHT31;62850;42.428;25.618;2023-07-24T08:18:26;30.22;54.38
74416;SHT31;62850;42.428;25.618;2023-07-24T08:20:52;30.46;53.64
74416;SHT31;62850;42.428;25.618;2023-07-24T08:23:17;30.62;52.37
74416;SHT31;62850;42.428;25.618;2023-07-24T08:25:55;30.86;52.74
74416;SHT31;62850;42.428;25.618;2023-07-24T08:28:21;30.97;51.38
74416;SHT31;62850;42.428;25.618;2023-07-24T08:30:56;31.11;51.03
74416;SHT31;62850;42.428;25.618;2023-07-24T08:33:21;30.91;50.73
74416;SHT31;62850;42.428;25.618;2023-07-24T08:35:47;31.11;50.25
74416;SHT31;62850;42.428;25.618;2023-07-24T08:38:12;31.24;50.59
74416;SHT31;62850;42.428;25.618;2023-07-24T08:40:38;31.45;49.81
74416;SHT31;62850;42.428;25.618;2023-07-24T08:43:04;31.61;49.50
74416;SHT31;62850;42.428;25.618;2023-07-24T08:45:30;31.78;48.85
74416;SHT31;62850;42.428;25.618;2023-07-24T08:47:56;31.88;47.97
74416;SHT31;62850;42.428;25.618;2023-07-24T08:50:24;31.86;47.72
74416;SHT31;62850;42.428;25.618;2023-07-24T08:52:50;32.03;47.83
74416;SHT31;62850;42.428;25.618;2023-07-24T08:55:16;32.13;46.80
74416;SHT31;62850;42.428;25.618;2023-07-24T08:57:42;32.27;46.98
74416;SHT31;62850;42.428;25.618;2023-07-24T09:00:08;32.26;46.98
74416;SHT31;62850;42.428;25.618;2023-07-24T09:02:34;32.24;45.22
74416;SHT31;62850;42.428;25.618;2023-07-24T09:05:00;32.24;45.79
74416;SHT31;62850;42.428;25.618;2023-07-24T09:07:26;32.00;46.82
74416;SHT31;62850;42.428;25.618;2023-07-24T09:09:51;32.00;47.20
74416;SHT31;62850;42.428;25.618;2023-07-24T09:12:18;32.12;46.13
74416;SHT31;62850;42.428;25.618;2023-07-24T09:14:43;32.16;45.62
74416;SHT31;62850;42.428;25.618;2023-07-24T09:17:11;32.23;45.45
74416;SHT31;62850;42.428;25.618;2023-07-24T09:19:37;32.34;44.74
74416;SHT31;62850;42.428;25.618;2023-07-24T09:22:13;32.39;44.41
74416;SHT31;62850;42.428;25.618;2023-07-24T09:24:57;32.40;42.54
74416;SHT31;62850;42.428;25.618;2023-07-24T09:27:27;32.40;43.33
74416;SHT31;62850;42.428;25.618;2023-07-24T09:29:55;32.53;44.31
74416;SHT31;62850;42.428;25.618;2023-07-24T09:32:28;32.57;43.48
74416;SHT31;62850;42.428;25.618;2023-07-24T09:34:54;32.58;41.91
74416;SHT31;62850;42.428;25.618;2023-07-24T09:37:37;32.63;39.74
74416;SHT31;62850;42.428;25.618;2023-07-24T09:40:04;32.72;40.77
74416;SHT31;62850;42.428;25.618;2023-07-24T09:42:31;32.74;41.86
74416;SHT31;62850;42.428;25.618;2023-07-24T09:44:56;32.92;40.92
74416;SHT31;62850;42.428;25.618;2023-07-24T09:47:22;33.06;40.98
74416;SHT31;62850;42.428;25.618;2023-07-24T09:49:48;33.12;38.61
74416;SHT31;62850;42.428;25.618;2023-07-24T09:52:14;33.01;36.98
74416;SHT31;62850;42.428;25.618;2023-07-24T09:57:28;33.12;37.15
74416;SHT31;62850;42.428;25.618;2023-07-24T09:59:56;33.23;37.92
74416;SHT31;62850;42.428;25.618;2023-07-24T10:02:22;33.33;37.82
74416;SHT31;62850;42.428;25.618;2023-07-24T10:04:49;33.29;37.15
74416;SHT31;62850;42.428;25.618;2023-07-24T10:07:15;33.37;37.45
74416;SHT31;62850;42.428;25.618;2023-07-24T10:09:47;33.52;37.42
74416;SHT31;62850;42.428;25.618;2023-07-24T10:12:13;33.62;37.69
74416;SHT31;62850;42.428;25.618;2023-07-24T10:14:38;33.67;36.69
74416;SHT31;62850;42.428;25.618;2023-07-24T10:17:04;33.73;37.84
74416;SHT31;62850;42.428;25.618;2023-07-24T10:19:41;33.76;37.08
74416;SHT31;62850;42.428;25.618;2023-07-24T10:22:17;33.72;36.29
74416;SHT31;62850;42.428;25.618;2023-07-24T10:24:46;33.87;36.73
74416;SHT31;62850;42.428;25.618;2023-07-24T10:27:12;33.93;35.11
74416;SHT31;62850;42.428;25.618;2023-07-24T10:29:37;33.98;34.25
74416;SHT31;62850;42.428;25.618;2023-07-24T10:32:05;34.05;34.82
74416;SHT31;62850;42.428;25.618;2023-07-24T10:34:41;34.10;35.03
74416;SHT31;62850;42.428;25.618;2023-07-24T10:37:08;34.18;34.87
74416;SHT31;62850;42.428;25.618;2023-07-24T10:39:39;34.29;35.28
74416;SHT31;62850;42.428;25.618;2023-07-24T10:42:10;34.47;35.61
74416;SHT31;62850;42.428;25.618;2023-07-24T10:44:36;34.48;33.72
74416;SHT31;62850;42.428;25.618;2023-07-24T10:47:02;34.52;34.18
74416;SHT31;62850;42.428;25.618;2023-07-24T10:49:28;34.56;34.72
74416;SHT31;62850;42.428;25.618;2023-07-24T10:51:57;34.71;33.72
74416;SHT31;62850;42.428;25.618;2023-07-24T10:54:22;34.78;35.23
74416;SHT31;62850;42.428;25.618;2023-07-24T10:56:48;34.93;33.61
74416;SHT31;62850;42.428;25.618;2023-07-24T10:59:13;35.07;32.72
74416;SHT31;62850;42.428;25.618;2023-07-24T11:01:40;35.26;33.64
74416;SHT31;62850;42.428;25.618;2023-07-24T11:04:06;35.29;33.58
74416;SHT31;62850;42.428;25.618;2023-07-24T11:06:32;35.39;32.68
74416;SHT31;62850;42.428;25.618;2023-07-24T11:08:59;35.50;33.21
74416;SHT31;62850;42.428;25.618;2023-07-24T11:11:31;35.36;32.37
74416;SHT31;62850;42.428;25.618;2023-07-24T11:13:57;35.44;31.20
74416;SHT31;62850;42.428;25.618;2023-07-24T11:16:23;35.40;31.64
74416;SHT31;62850;42.428;25.618;2023-07-24T11:18:49;35.25;32.63
74416;SHT31;62850;42.428;25.618;2023-07-24T11:21:17;35.44;32.23
74416;SHT31;62850;42.428;25.618;2023-07-24T11:23:50;35.64;32.53
74416;SHT31;62850;42.428;25.618;2023-07-24T11:26:19;35.70;32.87
74416;SHT31;62850;42.428;25.618;2023-07-24T11:28:45;35.70;32.65
74416;SHT31;62850;42.428;25.618;2023-07-24T11:31:11;35.88;31.13
74416;SHT31;62850;42.428;25.618;2023-07-24T11:33:37;36.18;31.53
74416;SHT31;62850;42.428;25.618;2023-07-24T11:36:03;36.09;30.89
74416;SHT31;62850;42.428;25.618;2023-07-24T11:38:29;36.25;30.89
74416;SHT31;62850;42.428;25.618;2023-07-24T11:40:55;36.29;30.26
74416;SHT31;62850;42.428;25.618;2023-07-24T11:43:23;36.39;30.27
74416;SHT31;62850;42.428;25.618;2023-07-24T11:45:49;36.42;30.46
74416;SHT31;62850;42.428;25.618;2023-07-24T11:48:19;36.59;30.23
74416;SHT31;62850;42.428;25.618;2023-07-24T11:50:46;36.63;29.68
74416;SHT31;62850;42.428;25.618;2023-07-24T11:55:51;36.72;29.39
74416;SHT31;62850;42.428;25.618;2023-07-24T11:58:17;36.79;30.20
74416;SHT31;62850;42.428;25.618;2023-07-24T12:00:43;36.73;29.87
74416;SHT31;62850;42.428;25.618;2023-07-24T12:03:08;36.72;29.20
74416;SHT31;62850;42.428;25.618;2023-07-24T12:05:38;36.52;29.80
74416;SHT31;62850;42.428;25.618;2023-07-24T12:08:04;36.49;30.47
74416;SHT31;62850;42.428;25.618;2023-07-24T12:10:30;36.67;30.55
74416;SHT31;62850;42.428;25.618;2023-07-24T12:12:58;36.90;29.15
74416;SHT31;62850;42.428;25.618;2023-07-24T12:15:24;37.03;30.29
74416;SHT31;62850;42.428;25.618;2023-07-24T12:17:51;36.91;28.42
74416;SHT31;62850;42.428;25.618;2023-07-24T12:20:17;36.60;29.30
74416;SHT31;62850;42.428;25.618;2023-07-24T12:22:42;36.60;28.14
74416;SHT31;62850;42.428;25.618;2023-07-24T12:25:08;36.65;28.43
74416;SHT31;62850;42.428;25.618;2023-07-24T12:27:33;36.84;27.47
74416;SHT31;62850;42.428;25.618;2023-07-24T12:29:59;37.03;28.23
74416;SHT31;62850;42.428;25.618;2023-07-24T12:32:25;36.98;27.92
74416;SHT31;62850;42.428;25.618;2023-07-24T12:34:51;37.04;28.55
74416;SHT31;62850;42.428;25.618;2023-07-24T12:37:17;36.97;29.20
74416;SHT31;62850;42.428;25.618;2023-07-24T12:39:47;36.87;29.75
74416;SHT31;62850;42.428;25.618;2023-07-24T12:42:12;36.79;28.94
74416;SHT31;62850;42.428;25.618;2023-07-24T12:44:38;36.65;29.33
74416;SHT31;62850;42.428;25.618;2023-07-24T12:47:04;36.65;29.12
74416;SHT31;62850;42.428;25.618;2023-07-24T12:49:30;36.53;29.28
74416;SHT31;62850;42.428;25.618;2023-07-24T12:51:55;36.46;28.98
74416;SHT31;62850;42.428;25.618;2023-07-24T12:54:21;36.50;29.18
74416;SHT31;62850;42.428;25.618;2023-07-24T12:56:48;36.55;29.24
74416;SHT31;62850;42.428;25.618;2023-07-24T12:59:15;36.55;29.73
74416;SHT31;62850;42.428;25.618;2023-07-24T13:01:40;36.75;29.37
74416;SHT31;62850;42.428;25.618;2023-07-24T13:04:07;36.75;29.53
74416;SHT31;62850;42.428;25.618;2023-07-24T13:06:32;36.72;29.25
74416;SHT31;62850;42.428;25.618;2023-07-24T13:08:58;36.43;29.11
74416;SHT31;62850;42.428;25.618;2023-07-24T13:11:23;36.36;29.86
74416;SHT31;62850;42.428;25.618;2023-07-24T13:13:49;36.39;29.73
74416;SHT31;62850;42.428;25.618;2023-07-24T13:16:16;36.40;30.43
74416;SHT31;62850;42.428;25.618;2023-07-24T13:18:41;36.43;30.10
74416;SHT31;62850;42.428;25.618;2023-07-24T13:21:07;36.43;29.95
74416;SHT31;62850;42.428;25.618;2023-07-24T13:23:33;36.36;30.12
74416;SHT31;62850;42.428;25.618;2023-07-24T13:25:59;36.45;29.32
74416;SHT31;62850;42.428;25.618;2023-07-24T13:28:24;36.31;30.03
74416;SHT31;62850;42.428;25.618;2023-07-24T13:30:50;36.38;29.77
74416;SHT31;62850;42.428;25.618;2023-07-24T13:33:15;36.33;29.60
74416;SHT31;62850;42.428;25.618;2023-07-24T13:35:41;36.31;29.38
74416;SHT31;62850;42.428;25.618;2023-07-24T13:38:06;36.26;29.19
74416;SHT31;62850;42.428;25.618;2023-07-24T13:40:34;36.42;29.20
74416;SHT31;62850;42.428;25.618;2023-07-24T13:43:00;36.43;29.26
74416;SHT31;62850;42.428;25.618;2023-07-24T13:45:25;36.36;29.07
74416;SHT31;62850;42.428;25.618;2023-07-24T13:47:51;36.32;29.18
74416;SHT31;62850;42.428;25.618;2023-07-24T13:50:16;36.11;30.19
74416;SHT31;62850;42.428;25.618;2023-07-24T13:52:42;36.18;29.04
74416;SHT31;62850;42.428;25.618;2023-07-24T13:55:07;36.05;29.31
74416;SHT31;62850;42.428;25.618;2023-07-24T13:57:33;35.92;29.98
74416;SHT31;62850;42.428;25.618;2023-07-24T13:59:58;35.98;30.11
74416;SHT31;62850;42.428;25.618;2023-07-24T14:02:24;36.08;30.14
74416;SHT31;62850;42.428;25.618;2023-07-24T14:04:49;36.15;29.80
74416;SHT31;62850;42.428;25.618;2023-07-24T14:07:15;36.19;29.99
74416;SHT31;62850;42.428;25.618;2023-07-24T14:09:40;36.25;29.63
74416;SHT31;62850;42.428;25.618;2023-07-24T14:12:06;36.14;29.17
74416;SHT31;62850;42.428;25.618;2023-07-24T14:14:32;36.02;30.05
74416;SHT31;62850;42.428;25.618;2023-07-24T14:16:57;35.74;29.87
74416;SHT31;62850;42.428;25.618;2023-07-24T14:19:23;35.84;30.39
74416;SHT31;62850;42.428;25.618;2023-07-24T14:21:49;35.85;30.84
74416;SHT31;62850;42.428;25.618;2023-07-24T14:24:15;35.81;30.77
74416;SHT31;62850;42.428;25.618;2023-07-24T14:26:41;35.73;30.57
74416;SHT31;62850;42.428;25.618;2023-07-24T14:29:06;35.61;30.37
74416;SHT31;62850;42.428;25.618;2023-07-24T14:31:32;35.43;29.91
74416;SHT31;62850;42.428;25.618;2023-07-24T14:33:57;35.26;29.66
74416;SHT31;62850;42.428;25.618;2023-07-24T14:36:23;35.29;30.63
74416;SHT31;62850;42.428;25.618;2023-07-24T14:38:48;35.33;30.63
74416;SHT31;62850;42.428;25.618;2023-07-24T14:41:16;35.31;30.78
74416;SHT31;62850;42.428;25.618;2023-07-24T14:43:42;35.27;30.82
74416;SHT31;62850;42.428;25.618;2023-07-24T14:46:07;35.26;30.81
74416;SHT31;62850;42.428;25.618;2023-07-24T14:48:32;35.04;31.60
74416;SHT31;62850;42.428;25.618;2023-07-24T14:50:58;35.12;31.55
74416;SHT31;62850;42.428;25.618;2023-07-24T14:53:24;35.12;31.33
74416;SHT31;62850;42.428;25.618;2023-07-24T14:55:49;35.12;30.93
74416;SHT31;62850;42.428;25.618;2023-07-24T14:58:14;34.93;31.55
74416;SHT31;62850;42.428;25.618;2023-07-24T15:00:40;35.02;31.21
74416;SHT31;62850;42.428;25.618;2023-07-24T15:03:05;34.96;31.31
74416;SHT31;62850;42.428;25.618;2023-07-24T15:05:31;34.96;31.49
74416;SHT31;62850;42.428;25.618;2023-07-24T15:07:57;34.88;31.73
74416;SHT31;62850;42.428;25.618;2023-07-24T15:10:23;34.85;31.58
74416;SHT31;62850;42.428;25.618;2023-07-24T15:12:48;34.83;31.69
74416;SHT31;62850;42.428;25.618;2023-07-24T15:15:13;34.71;31.67
74416;SHT31;62850;42.428;25.618;2023-07-24T15:17:39;34.55;32.04
74416;SHT31;62850;42.428;25.618;2023-07-24T15:20:06;34.51;32.38
74416;SHT31;62850;42.428;25.618;2023-07-24T15:22:33;34.56;32.14